sensor_id;sensor_type;location;lat;lon;timestamp;pressure;altitude;pressure_sealevel;temperature;humidity
21623;BME280;10973;46.706;12.340;2023-06-22T08:14:58;87959.59;;;24.79;49.13
21623;BME280;10973;46.706;12.340;2023-06-22T08:17:26;87958.88;;;24.88;48.78
21623;BME280;10973;46.706;12.340;2023-06-22T08:19:54;87959.53;;;24.92;48.58
21623;BME280;10973;46.706;12.340;2023-06-22T08:22:22;87962.69;;;24.99;47.89
21623;BME280;10973;46.706;12.340;2023-06-22T08:24:49;87957.94;;;25.03;47.32
21623;BME280;10973;46.706;12.340;2023-06-22T08:27:17;87963.19;;;25.07;48.00
21623;BME280;10973;46.706;12.340;2023-06-22T08:29:45;87963.03;;;25.10;48.36
21623;BME280;10973;46.706;12.340;2023-06-22T08:32:12;87961.28;;;25.16;47.06
21623;BME280;10973;46.706;12.340;2023-06-22T08:34:40;87951.09;;;25.20;47.07
21623;BME280;10973;46.706;12.340;2023-06-22T08:37:11;87948.59;;;25.26;47.14
21623;BME280;10973;46.706;12.340;2023-06-22T08:39:38;87952.81;;;25.36;46.67
21623;BME280;10973;46.706;12.340;2023-06-22T08:42:06;87942.19;;;25.32;46.44
21623;BME280;10973;46.706;12.340;2023-06-22T08:44:34;87935.94;;;25.44;46.25
21623;BME280;10973;46.706;12.340;2023-06-22T08:47:02;87940.16;;;25.55;45.04
21623;BME280;10973;46.706;12.340;2023-06-22T08:49:29;87933.72;;;25.61;44.95
21623;BME280;10973;46.706;12.340;2023-06-22T08:51:57;87927.59;;;25.70;43.67
21623;BME280;10973;46.706;12.340;2023-06-22T08:54:24;87934.22;;;25.78;43.32
21623;BME280;10973;46.706;12.340;2023-06-22T08:56:52;87927.19;;;25.89;43.05
21623;BME280;10973;46.706;12.340;2023-06-22T08:59:19;87921.94;;;25.95;41.14
21623;BME280;10973;46.706;12.340;2023-06-22T09:01:46;87923.31;;;26.08;41.18
21623;BME280;10973;46.706;12.340;2023-06-22T09:04:14;87918.53;;;26.22;40.19
21623;BME280;10973;46.706;12.340;2023-06-22T09:06:42;87916.75;;;26.28;39.35
21623;BME280;10973;46.706;12.340;2023-06-22T09:09:11;87916.59;;;26.40;38.46
21623;BME280;10973;46.706;12.340;2023-06-22T09:11:39;87911.63;;;26.48;39.22
21623;BME280;10973;46.706;12.340;2023-06-22T09:14:07;87910.56;;;26.54;37.39
21623;BME280;10973;46.706;12.340;2023-06-22T09:16:34;87911.44;;;26.60;36.40
21623;BME280;10973;46.706;12.340;2023-06-22T09:19:02;87902.13;;;26.70;36.69
21623;BME280;10973;46.706;12.340;2023-06-22T09:21:30;87906.03;;;26.78;36.75
21623;BME280;10973;46.706;12.340;2023-06-22T09:24:00;87903.31;;;26.87;36.38
21623;BME280;10973;46.706;12.340;2023-06-22T09:26:27;87900.75;;;26.93;36.32
21623;BME280;10973;46.706;12.340;2023-06-22T09:28:55;87891.28;;;26.98;37.81
21623;BME280;10973;46.706;12.340;2023-06-22T09:31:22;87898.91;;;27.08;36.10
21623;BME280;10973;46.706;12.340;2023-06-22T09:33:54;87889.38;;;27.22;35.63
21623;BME280;10973;46.706;12.340;2023-06-22T09:36:21;87892.97;;;27.28;35.20
21623;BME280;10973;46.706;12.340;2023-06-22T09:38:50;87893.84;;;27.34;36.34
21623;BME280;10973;46.706;12.340;2023-06-22T09:41:17;87891.13;;;27.43;35.79
21623;BME280;10973;46.706;12.340;2023-06-22T09:43:44;87895.75;;;27.51;36.37
21623;BME280;10973;46.706;12.340;2023-06-22T09:46:12;87893.50;;;27.50;34.97
21623;BME280;10973;46.706;12.340;2023-06-22T09:48:39;87888.63;;;27.63;35.42
21623;BME280;10973;46.706;12.340;2023-06-22T09:51:07;87889.31;;;27.73;35.05
21623;BME280;10973;46.706;12.340;2023-06-22T09:53:35;87882.81;;;27.79;36.02
21623;BME280;10973;46.706;12.340;2023-06-22T09:56:02;87887.13;;;27.86;35.10
21623;BME280;10973;46.706;12.340;2023-06-22T09:58:30;87883.31;;;27.92;34.89
21623;BME280;10973;46.706;12.340;2023-06-22T10:01:01;87881.22;;;27.96;35.14
21623;BME280;10973;46.706;12.340;2023-06-22T10:03:30;87883.91;;;27.96;34.56
21623;BME280;10973;46.706;12.340;2023-06-22T10:05:57;87881.81;;;28.00;34.12
21623;BME280;10973;46.706;12.340;2023-06-22T10:08:25;87876.75;;;28.08;35.38
21623;BME280;10973;46.706;12.340;2023-06-22T10:10:52;87869.50;;;28.14;34.86
21623;BME280;10973;46.706;12.340;2023-06-22T10:13:20;87866.16;;;28.19;35.27
21623;BME280;10973;46.706;12.340;2023-06-22T10:15:47;87866.09;;;28.28;34.90
21623;BME280;10973;46.706;12.340;2023-06-22T10:18:16;87867.03;;;28.40;34.44
21623;BME280;10973;46.706;12.340;2023-06-22T10:20:49;87866.84;;;28.43;33.18
21623;BME280;10973;46.706;12.340;2023-06-22T10:23:19;87861.53;;;28.49;33.45
21623;BME280;10973;46.706;12.340;2023-06-22T10:25:47;87860.31;;;28.50;34.31
21623;BME280;10973;46.706;12.340;2023-06-22T10:28:15;87853.78;;;28.56;33.78
21623;BME280;10973;46.706;12.340;2023-06-22T10:30:43;87856.34;;;28.60;33.38
21623;BME280;10973;46.706;12.340;2023-06-22T10:33:12;87849.06;;;28.66;32.66
21623;BME280;10973;46.706;12.340;2023-06-22T10:35:39;87854.38;;;28.75;32.03
21623;BME280;10973;46.706;12.340;2023-06-22T10:38:07;87846.72;;;28.73;30.81
21623;BME280;10973;46.706;12.340;2023-06-22T10:40:38;87844.56;;;28.77;31.04
21623;BME280;10973;46.706;12.340;2023-06-22T10:43:08;87838.56;;;28.88;31.53
21623;BME280;10973;46.706;12.340;2023-06-22T10:45:39;87831.56;;;28.96;31.74
21623;BME280;10973;46.706;12.340;2023-06-22T10:48:06;87825.44;;;29.01;30.47
21623;BME280;10973;46.706;12.340;2023-06-22T10:50:34;87829.47;;;29.06;31.21
21623;BME280;10973;46.706;12.340;2023-06-22T10:53:02;87822.94;;;29.12;30.38
21623;BME280;10973;46.706;12.340;2023-06-22T10:55:29;87828.34;;;29.12;30.70
21623;BME280;10973;46.706;12.340;2023-06-22T10:58:18;87814.88;;;29.18;29.62
21623;BME280;10973;46.706;12.340;2023-06-22T11:00:46;87809.34;;;29.27;29.83
21623;BME280;10973;46.706;12.340;2023-06-22T11:03:13;87805.75;;;29.35;28.61
21623;BME280;10973;46.706;12.340;2023-06-22T11:05:41;87808.34;;;29.44;29.02
21623;BME280;10973;46.706;12.340;2023-06-22T11:08:08;87801.03;;;29.50;27.32
21623;BME280;10973;46.706;12.340;2023-06-22T11:10:36;87798.94;;;29.60;27.57
21623;BME280;10973;46.706;12.340;2023-06-22T11:13:03;87799.09;;;29.71;30.27
21623;BME280;10973;46.706;12.340;2023-06-22T11:15:31;87791.84;;;29.83;28.89
21623;BME280;10973;46.706;12.340;2023-06-22T11:17:59;87789.53;;;29.96;28.74
21623;BME280;10973;46.706;12.340;2023-06-22T11:20:26;87792.16;;;30.10;29.92
21623;BME280;10973;46.706;12.340;2023-06-22T11:22:54;87781.22;;;30.25;28.43
21623;BME280;10973;46.706;12.340;2023-06-22T11:25:21;87775.44;;;30.38;28.06
21623;BME280;10973;46.706;12.340;2023-06-22T11:27:49;87774.75;;;30.43;27.83
21623;BME280;10973;46.706;12.340;2023-06-22T11:30:17;87774.81;;;30.48;28.44
21623;BME280;10973;46.706;12.340;2023-06-22T11:32:44;87765.72;;;30.57;28.42
21623;BME280;10973;46.706;12.340;2023-06-22T11:35:12;87760.66;;;30.70;29.07
21623;BME280;10973;46.706;12.340;2023-06-22T11:37:39;87760.53;;;30.84;29.07
21623;BME280;10973;46.706;12.340;2023-06-22T11:40:09;87761.69;;;31.03;29.74
21623;BME280;10973;46.706;12.340;2023-06-22T11:42:37;87760.03;;;31.12;29.80
21623;BME280;10973;46.706;12.340;2023-06-22T11:45:06;87761.50;;;31.13;29.35
21623;BME280;10973;46.706;12.340;2023-06-22T11:47:34;87762.00;;;31.11;28.49
21623;BME280;10973;46.706;12.340;2023-06-22T11:50:02;87750.06;;;31.03;29.10
21623;BME280;10973;46.706;12.340;2023-06-22T11:52:29;87750.88;;;31.15;30.28
21623;BME280;10973;46.706;12.340;2023-06-22T11:54:57;87745.53;;;31.26;29.92
21623;BME280;10973;46.706;12.340;2023-06-22T11:57:24;87737.94;;;31.41;29.19
21623;BME280;10973;46.706;12.340;2023-06-22T11:59:51;87738.91;;;31.38;28.94
21623;BME280;10973;46.706;12.340;2023-06-22T12:02:19;87735.78;;;31.50;29.24
21623;BME280;10973;46.706;12.340;2023-06-22T12:04:46;87734.09;;;31.58;28.80
21623;BME280;10973;46.706;12.340;2023-06-22T12:07:13;87740.03;;;31.57;28.89
21623;BME280;10973;46.706;12.340;2023-06-22T12:09:41;87738.13;;;31.68;28.75
21623;BME280;10973;46.706;12.340;2023-06-22T12:12:09;87736.41;;;31.71;27.87
21623;BME280;10973;46.706;12.340;2023-06-22T12:14:36;87729.16;;;31.62;28.21
21623;BME280;10973;46.706;12.340;2023-06-22T12:17:04;87728.63;;;31.58;28.61
21623;BME280;10973;46.706;12.340;2023-06-22T12:19:32;87735.59;;;31.65;28.57
21623;BME280;10973;46.706;12.340;2023-06-22T12:21:59;87725.22;;;31.69;28.40
21623;BME280;10973;46.706;12.340;2023-06-22T12:24:26;87716.81;;;31.78;28.69
21623;BME280;10973;46.706;12.340;2023-06-22T12:26:54;87715.09;;;31.75;27.84
21623;BME280;10973;46.706;12.340;2023-06-22T12:29:22;87710.66;;;31.78;28.16
21623;BME280;10973;46.706;12.340;2023-06-22T12:31:49;87707.72;;;31.87;28.66
21623;BME280;10973;46.706;12.340;2023-06-22T12:34:17;87709.69;;;31.92;28.29
21623;BME280;10973;46.706;12.340;2023-06-22T12:36:44;87712.63;;;31.77;28.13
21623;BME280;10973;46.706;12.340;2023-06-22T12:39:12;87705.19;;;31.78;28.16
21623;BME280;10973;46.706;12.340;2023-06-22T12:41:39;87707.88;;;31.66;28.77
21623;BME280;10973;46.706;12.340;2023-06-22T12:44:07;87707.59;;;31.59;29.23
21623;BME280;10973;46.706;12.340;2023-06-22T12:46:34;87707.34;;;31.57;27.38
21623;BME280;10973;46.706;12.340;2023-06-22T12:49:02;87709.56;;;31.53;28.26
21623;BME280;10973;46.706;12.340;2023-06-22T12:51:30;87709.19;;;31.40;28.62
21623;BME280;10973;46.706;12.340;2023-06-22T12:53:57;87709.63;;;31.27;28.51
21623;BME280;10973;46.706;12.340;2023-06-22T12:56:25;87704.13;;;31.22;28.76
21623;BME280;10973;46.706;12.340;2023-06-22T12:58:53;87704.38;;;31.18;28.78
21623;BME280;10973;46.706;12.340;2023-06-22T13:01:20;87715.75;;;31.17;27.80
21623;BME280;10973;46.706;12.340;2023-06-22T13:03:48;87699.47;;;31.28;27.80
21623;BME280;10973;46.706;12.340;2023-06-22T13:06:15;87706.91;;;31.33;28.46
21623;BME280;10973;46.706;12.340;2023-06-22T13:08:43;87693.56;;;31.35;28.53
21623;BME280;10973;46.706;12.340;2023-06-22T13:11:30;87696.31;;;31.35;28.11
21623;BME280;10973;46.706;12.340;2023-06-22T13:13:57;87696.38;;;31.46;29.17
21623;BME280;10973;46.706;12.340;2023-06-22T13:16:25;87693.19;;;31.53;29.27
21623;BME280;10973;46.706;12.340;2023-06-22T13:18:52;87687.06;;;31.69;28.80
21623;BME280;10973;46.706;12.340;2023-06-22T13:21:20;87691.81;;;31.85;27.64
21623;BME280;10973;46.706;12.340;2023-06-22T13:23:47;87690.44;;;32.01;29.36
21623;BME280;10973;46.706;12.340;2023-06-22T13:26:15;87689.97;;;32.13;28.67
21623;BME280;10973;46.706;12.340;2023-06-22T13:28:42;87694.41;;;32.05;28.50
21623;BME280;10973;46.706;12.340;2023-06-22T13:31:10;87693.59;;;31.94;28.19
21623;BME280;10973;46.706;12.340;2023-06-22T13:33:38;87685.44;;;31.94;28.84
21623;BME280;10973;46.706;12.340;2023-06-22T13:36:05;87674.31;;;32.03;29.00
21623;BME280;10973;46.706;12.340;2023-06-22T13:38:35;87681.91;;;31.88;29.21
21623;BME280;10973;46.706;12.340;2023-06-22T13:41:03;87685.38;;;31.83;29.09
21623;BME280;10973;46.706;12.340;2023-06-22T13:43:31;87677.22;;;31.88;29.30
21623;BME280;10973;46.706;12.340;2023-06-22T13:45:58;87672.47;;;31.83;29.48
21623;BME280;10973;46.706;12.340;2023-06-22T13:48:26;87674.50;;;31.88;29.35
21623;BME280;10973;46.706;12.340;2023-06-22T13:50:53;87672.50;;;31.94;29.49
21623;BME280;10973;46.706;12.340;2023-06-22T13:53:21;87673.00;;;31.93;29.62
21623;BME280;10973;46.706;12.340;2023-06-22T13:55:48;87665.31;;;31.86;29.21
21623;BME280;10973;46.706;12.340;2023-06-22T13:58:16;87670.22;;;31.70;29.56
21623;BME280;10973;46.706;12.340;2023-06-22T14:00:43;87670.44;;;31.61;29.90
21623;BME280;10973;46.706;12.340;2023-06-22T14:03:15;87669.22;;;31.68;30.09
21623;BME280;10973;46.706;12.340;2023-06-22T14:05:43;87671.22;;;31.73;29.97
21623;BME280;10973;46.706;12.340;2023-06-22T14:08:17;87661.00;;;31.62;30.64
21623;BME280;10973;46.706;12.340;2023-06-22T14:11:06;87664.38;;;31.41;30.88
21623;BME280;10973;46.706;12.340;2023-06-22T14:13:34;87658.00;;;31.44;30.72
21623;BME280;10973;46.706;12.340;2023-06-22T14:16:02;87649.53;;;31.42;30.80
21623;BME280;10973;46.706;12.340;2023-06-22T14:18:30;87649.00;;;31.38;31.15
21623;BME280;10973;46.706;12.340;2023-06-22T14:20:57;87650.72;;;31.30;30.94
21623;BME280;10973;46.706;12.340;2023-06-22T14:23:26;87644.31;;;31.38;30.83
21623;BME280;10973;46.706;12.340;2023-06-22T14:25:54;87638.63;;;31.42;30.49
21623;BME280;10973;46.706;12.340;2023-06-22T14:28:22;87638.16;;;31.49;30.37
21623;BME280;10973;46.706;12.340;2023-06-22T14:30:51;87634.41;;;31.41;30.04
21623;BME280;10973;46.706;12.340;2023-06-22T14:33:22;87633.81;;;31.20;30.10
21623;BME280;10973;46.706;12.340;2023-06-22T14:35:49;87629.03;;;31.04;30.39
21623;BME280;10973;46.706;12.340;2023-06-22T14:38:21;87637.41;;;30.95;30.25
21623;BME280;10973;46.706;12.340;2023-06-22T14:40:49;87629.88;;;30.84;30.32
21623;BME280;10973;46.706;12.340;2023-06-22T14:43:36;87636.75;;;30.74;30.48
21623;BME280;10973;46.706;12.340;2023-06-22T14:46:03;87640.78;;;30.84;30.64
21623;BME280;10973;46.706;12.340;2023-06-22T14:48:31;87630.00;;;31.01;30.70
21623;BME280;10973;46.706;12.340;2023-06-22T14:50:58;87627.91;;;31.27;30.68
21623;BME280;10973;46.706;12.340;2023-06-22T14:53:25;87629.03;;;31.52;30.13
21623;BME280;10973;46.706;12.340;2023-06-22T14:55:53;87632.56;;;31.75;30.09
21623;BME280;10973;46.706;12.340;2023-06-22T14:58:21;87621.94;;;31.88;29.78
21623;BME280;10973;46.706;12.340;2023-06-22T15:00:48;87619.97;;;31.88;29.35
21623;BME280;10973;46.706;12.340;2023-06-22T15:03:16;87629.69;;;32.00;29.29
21623;BME280;10973;46.706;12.340;2023-06-22T15:05:45;87621.78;;;32.13;28.70
21623;BME280;10973;46.706;12.340;2023-06-22T15:08:13;87615.84;;;32.37;29.23
21623;BME280;10973;46.706;12.340;2023-06-22T15:10:40;87613.38;;;32.56;28.65
21623;BME280;10973;46.706;12.340;2023-06-22T15:13:08;87606.44;;;32.77;28.71
21623;BME280;10973;46.706;12.340;2023-06-22T15:15:36;87620.31;;;32.84;28.37
21623;BME280;10973;46.706;12.340;2023-06-22T15:18:04;87604.69;;;32.74;27.57
21623;BME280;10973;46.706;12.340;2023-06-22T15:20:31;87615.88;;;32.59;28.21
21623;BME280;10973;46.706;12.340;2023-06-22T15:22:59;87604.19;;;32.48;28.07
21623;BME280;10973;46.706;12.340;2023-06-22T15:25:26;87601.72;;;32.27;29.21
21623;BME280;10973;46.706;12.340;2023-06-22T15:27:54;87606.91;;;32.09;28.77
21623;BME280;10973;46.706;12.340;2023-06-22T15:30:21;87596.94;;;31.89;28.60
21623;BME280;10973;46.706;12.340;2023-06-22T15:32:49;87594.25;;;32.00;28.80
21623;BME280;10973;46.706;12.340;2023-06-22T15:35:16;87578.13;;;32.08;28.89
21623;BME280;10973;46.706;12.340;2023-06-22T15:37:45;87585.81;;;32.09;27.13
21623;BME280;10973;46.706;12.340;2023-06-22T15:40:12;87588.81;;;32.11;28.55
21623;BME280;10973;46.706;12.340;2023-06-22T15:42:40;87598.97;;;32.16;27.82
21623;BME280;10973;46.706;12.340;2023-06-22T15:45:08;87598.75;;;32.25;28.06
21623;BME280;10973;46.706;12.340;2023-06-22T15:47:38;87588.06;;;32.27;28.65
21623;BME280;10973;46.706;12.340;2023-06-22T15:50:06;87586.81;;;32.28;29.11
21623;BME280;10973;46.706;12.340;2023-06-22T15:52:33;87587.56;;;32.18;29.80
21623;BME280;10973;46.706;12.340;2023-06-22T15:55:01;87593.75;;;32.13;29.40
21623;BME280;10973;46.706;12.340;2023-06-22T15:57:28;87589.03;;;32.08;29.82
21623;BME280;10973;46.706;12.340;2023-06-22T16:00:01;87588.56;;;32.09;29.73
21623;BME280;10973;46.706;12.340;2023-06-22T16:02:28;87590.25;;;32.01;29.60
21623;BME280;10973;46.706;12.340;2023-06-22T16:04:56;87598.41;;;31.85;30.40
21623;BME280;10973;46.706;12.340;2023-06-22T16:07:23;87589.47;;;31.79;30.63
21623;BME280;10973;46.706;12.340;2023-06-22T16:09:51;87592.69;;;31.77;30.83
21623;BME280;10973;46.706;12.340;2023-06-22T16:12:19;87588.22;;;31.74;31.15
21623;BME280;10973;46.706;12.340;2023-06-22T16:14:49;87593.16;;;31.70;31.17
21623;BME280;10973;46.706;12.340;2023-06-22T16:17:17;87597.59;;;31.56;30.92
21623;BME280;10973;46.706;12.340;2023-06-22T16:19:45;87601.25;;;31.42;31.30
21623;BME280;10973;46.706;12.340;2023-06-22T16:22:12;87606.16;;;31.38;31.47
21623;BME280;10973;46.706;12.340;2023-06-22T16:24:40;87613.53;;;31.27;32.05
21623;BME280;10973;46.706;12.340;2023-06-22T16:27:07;87612.72;;;31.10;32.44
21623;BME280;10973;46.706;12.340;2023-06-22T16:29:34;87618.59;;;30.97;32.23
21623;BME280;10973;46.706;12.340;2023-06-22T16:32:02;87609.78;;;30.76;32.61
21623;BME280;10973;46.706;12.340;2023-06-22T16:34:29;87621.66;;;30.73;32.90
21623;BME280;10973;46.706;12.340;2023-06-22T16:36:57;87624.91;;;30.77;32.95
21623;BME280;10973;46.706;12.340;2023-06-22T16:39:24;87620.09;;;30.67;33.19
21623;BME280;10973;46.706;12.340;2023-06-22T16:41:52;87622.09;;;30.66;32.99
21623;BME280;10973;46.706;12.340;2023-06-22T16:44:20;87611.16;;;30.55;33.71
21623;BME280;10973;46.706;12.340;2023-06-22T16:46:47;87612.03;;;30.41;33.75
21623;BME280;10973;46.706;12.340;2023-06-22T16:49:15;87617.22;;;30.39;33.87
21623;BME280;10973;46.706;12.340;2023-06-22T16:51:43;87618.09;;;30.30;34.15
21623;BME280;10973;46.706;12.340;2023-06-22T16:54:11;87617.28;;;30.19;34.79
21623;BME280;10973;46.706;12.340;2023-06-22T16:56:39;87614.56;;;30.19;34.26
21623;BME280;10973;46.706;12.340;2023-06-22T16:59:07;87612.00;;;30.10;34.65
21623;BME280;10973;46.706;12.340;2023-06-22T17:01:34;87610.44;;;30.03;34.93
21623;BME280;10973;46.706;12.340;2023-06-22T17:04:10;87608.44;;;29.98;34.77
21623;BME280;10973;46.706;12.340;2023-06-22T17:06:42;87611.78;;;29.88;35.07
21623;BME280;10973;46.706;12.340;2023-06-22T17:09:13;87616.63;;;29.78;35.50
21623;BME280;10973;46.706;12.340;2023-06-22T17:11:42;87612.91;;;29.55;35.69
21623;BME280;10973;46.706;12.340;2023-06-22T17:14:11;87618.81;;;29.48;36.32
21623;BME280;10973;46.706;12.340;2023-06-22T17:16:44;87628.09;;;29.42;36.00
21623;BME280;10973;46.706;12.340;2023-06-22T17:19:13;87617.19;;;29.36;36.38
21623;BME280;10973;46.706;12.340;2023-06-22T17:21:40;87609.09;;;29.22;36.61
21623;BME280;10973;46.706;12.340;2023-06-22T17:24:10;87610.44;;;29.12;37.16
21623;BME280;10973;46.706;12.340;2023-06-22T17:26:39;87614.78;;;29.04;36.55
21623;BME280;10973;46.706;12.340;2023-06-22T17:29:09;87616.47;;;29.01;36.96
21623;BME280;10973;46.706;12.340;2023-06-22T17:31:40;87626.66;;;28.86;37.21
21623;BME280;10973;46.706;12.340;2023-06-22T17:34:12;87614.41;;;28.76;36.91
21623;BME280;10973;46.706;12.340;2023-06-22T17:36:51;87614.16;;;28.74;37.01
21623;BME280;10973;46.706;12.340;2023-06-22T17:39:21;87606.59;;;28.63;37.55
21623;BME280;10973;46.706;12.340;2023-06-22T17:41:50;87610.75;;;28.59;37.75
21623;BME280;10973;46.706;12.340;2023-06-22T17:44:25;87603.44;;;28.50;38.28
21623;BME280;10973;46.706;12.340;2023-06-22T17:46:58;87608.13;;;28.50;37.92
21623;BME280;10973;46.706;12.340;2023-06-22T17:49:30;87615.34;;;28.38;38.02
21623;BME280;10973;46.706;12.340;2023-06-22T17:52:00;87605.72;;;28.37;38.28
21623;BME280;10973;46.706;12.340;2023-06-22T17:54:32;87603.94;;;28.34;38.49
21623;BME280;10973;46.706;12.340;2023-06-22T17:57:15;87598.72;;;28.31;38.55
21623;BME280;10973;46.706;12.340;2023-06-22T17:59:50;87591.25;;;28.25;38.16
21623;BME280;10973;46.706;12.340;2023-06-22T18:02:24;87593.13;;;28.19;38.50
21623;BME280;10973;46.706;12.340;2023-06-22T18:04:57;87581.56;;;28.19;38.68
21623;BME280;10973;46.706;12.340;2023-06-22T18:07:28;87588.56;;;28.11;38.64
21623;BME280;10973;46.706;12.340;2023-06-22T18:09:58;87583.09;;;28.05;39.22
21623;BME280;10973;46.706;12.340;2023-06-22T18:12:27;87573.19;;;28.02;39.13
21623;BME280;10973;46.706;12.340;2023-06-22T18:14:56;87568.97;;;28.01;39.00
21623;BME280;10973;46.706;12.340;2023-06-22T18:17:25;87572.44;;;27.87;39.45
21623;BME280;10973;46.706;12.340;2023-06-22T18:19:57;87574.66;;;27.89;39.20
21623;BME280;10973;46.706;12.340;2023-06-22T18:22:25;87564.47;;;27.84;39.53
21623;BME280;10973;46.706;12.340;2023-06-22T18:24:53;87571.56;;;27.81;39.89
21623;BME280;10973;46.706;12.340;2023-06-22T18:27:24;87559.25;;;27.80;39.81
21623;BME280;10973;46.706;12.340;2023-06-22T18:29:55;87556.00;;;27.62;40.05
21623;BME280;10973;46.706;12.340;2023-06-22T18:32:23;87555.53;;;27.63;40.20
21623;BME280;10973;46.706;12.340;2023-06-22T18:34:51;87556.66;;;27.56;40.82
21623;BME280;10973;46.706;12.340;2023-06-22T18:37:19;87566.38;;;27.48;40.68
21623;BME280;10973;46.706;12.340;2023-06-22T18:39:53;87556.75;;;27.47;40.89
21623;BME280;10973;46.706;12.340;2023-06-22T18:42:21;87570.84;;;27.37;40.72
21623;BME280;10973;46.706;12.340;2023-06-22T18:44:54;87567.25;;;27.31;40.92
21623;BME280;10973;46.706;12.340;2023-06-22T18:47:30;87570.97;;;27.19;41.20
21623;BME280;10973;46.706;12.340;2023-06-22T18:50:07;87577.38;;;27.07;41.49
21623;BME280;10973;46.706;12.340;2023-06-22T18:52:36;87584.00;;;27.06;41.89
21623;BME280;10973;46.706;12.340;2023-06-22T18:55:11;87583.63;;;26.98;42.08
21623;BME280;10973;46.706;12.340;2023-06-22T18:57:39;87587.72;;;26.94;42.10
21623;BME280;10973;46.706;12.340;2023-06-22T19:00:08;87589.84;;;26.90;42.43
21623;BME280;10973;46.706;12.340;2023-06-22T19:02:57;87593.19;;;26.84;42.74
21623;BME280;10973;46.706;12.340;2023-06-22T19:05:41;87604.56;;;26.65;43.60
21623;BME280;10973;46.706;12.340;2023-06-22T19:08:10;87611.44;;;26.75;43.25
21623;BME280;10973;46.706;12.340;2023-06-22T19:10:42;87615.34;;;26.74;43.40
21623;BME280;10973;46.706;12.340;2023-06-22T19:15:44;87623.75;;;26.67;43.82
21623;BME280;10973;46.706;12.340;2023-06-22T19:18:24;87626.03;;;26.68;43.73
21623;BME280;10973;46.706;12.340;2023-06-22T19:21:19;87631.03;;;26.61;43.98
21623;BME280;10973;46.706;12.340;2023-06-22T19:23:47;87642.78;;;26.49;44.10
21623;BME280;10973;46.706;12.340;2023-06-22T19:26:17;87643.84;;;26.51;44.04
21623;BME280;10973;46.706;12.340;2023-06-22T19:28:53;87655.44;;;26.43;44.02
21623;BME280;10973;46.706;12.340;2023-06-22T19:31:24;87664.31;;;26.43;44.52
21623;BME280;10973;46.706;12.340;2023-06-22T19:34:03;87667.31;;;26.45;44.45
21623;BME280;10973;46.706;12.340;2023-06-22T19:36:33;87664.78;;;26.42;44.25
21623;BME280;10973;46.706;12.340;2023-06-22T19:39:03;87667.47;;;26.42;44.50
21623;BME280;10973;46.706;12.340;2023-06-22T19:41:31;87666.88;;;26.38;44.79
21623;BME280;10973;46.706;12.340;2023-06-22T19:43:59;87669.75;;;26.34;45.06
21623;BME280;10973;46.706;12.340;2023-06-22T19:46:29;87670.50;;;26.35;44.67
21623;BME280;10973;46.706;12.340;2023-06-22T19:48:58;87679.53;;;26.32;44.81
21623;BME280;10973;46.706;12.340;2023-06-22T19:51:35;87694.13;;;26.25;44.87
21623;BME280;10973;46.706;12.340;2023-06-22T19:54:09;87693.06;;;26.23;45.03
21623;BME280;10973;46.706;12.340;2023-06-22T19:56:37;87696.66;;;26.19;45.44
21623;BME280;10973;46.706;12.340;2023-06-22T19:59:12;87690.69;;;26.15;45.69
21623;BME280;10973;46.706;12.340;2023-06-22T20:01:40;87686.31;;;26.09;45.79
21623;BME280;10973;46.706;12.340;2023-06-22T20:04:08;87701.19;;;26.04;45.87
21623;BME280;10973;46.706;12.340;2023-06-22T20:06:37;87702.38;;;26.03;45.68
21623;BME280;10973;46.706;12.340;2023-06-22T20:09:05;87694.75;;;26.02;46.15
21623;BME280;10973;46.706;12.340;2023-06-22T20:11:34;87687.25;;;25.97;46.42
21623;BME280;10973;46.706;12.340;2023-06-22T20:14:02;87696.88;;;25.89;46.40
21623;BME280;10973;46.706;12.340;2023-06-22T20:16:30;87698.84;;;25.88;46.67
21623;BME280;10973;46.706;12.340;2023-06-22T20:19:11;87693.59;;;25.85;46.83
21623;BME280;10973;46.706;12.340;2023-06-22T20:21:39;87696.91;;;25.71;47.46
21623;BME280;10973;46.706;12.340;2023-06-22T20:24:10;87695.28;;;25.73;47.10
21623;BME280;10973;46.706;12.340;2023-06-22T20:26:43;87694.06;;;25.74;47.48
21623;BME280;10973;46.706;12.340;2023-06-22T20:29:29;87692.09;;;25.75;47.60
21623;BME280;10973;46.706;12.340;2023-06-22T20:32:12;87689.56;;;25.71;47.69
21623;BME280;10973;46.706;12.340;2023-06-22T20:34:45;87681.91;;;25.70;47.69
21623;BME280;10973;46.706;12.340;2023-06-22T20:37:16;87669.94;;;25.62;47.77
21623;BME280;10973;46.706;12.340;2023-06-22T20:39:44;87673.53;;;25.59;47.88
21623;BME280;10973;46.706;12.340;2023-06-22T20:42:15;87677.00;;;25.50;47.89
21623;BME280;10973;46.706;12.340;2023-06-22T20:44:43;87670.72;;;25.53;48.03
21623;BME280;10973;46.706;12.340;2023-06-22T20:47:10;87667.25;;;25.53;48.16
21623;BME280;10973;46.706;12.340;2023-06-22T20:49:37;87661.88;;;25.43;48.52
21623;BME280;10973;46.706;12.340;2023-06-22T20:52:05;87662.28;;;25.42;48.51
21623;BME280;10973;46.706;12.340;2023-06-22T20:54:34;87654.81;;;25.37;48.68
21623;BME280;10973;46.706;12.340;2023-06-22T20:57:01;87659.75;;;25.38;48.58
21623;BME280;10973;46.706;12.340;2023-06-22T20:59:29;87654.50;;;25.35;48.71
21623;BME280;10973;46.706;12.340;2023-06-22T21:01:57;87653.59;;;25.29;48.95
21623;BME280;10973;46.706;12.340;2023-06-22T21:04:25;87652.69;;;25.32;48.77
21623;BME280;10973;46.706;12.340;2023-06-22T21:06:52;87660.03;;;25.31;48.96
21623;BME280;10973;46.706;12.340;2023-06-22T21:09:20;87648.50;;;25.31;48.81
21623;BME280;10973;46.706;12.340;2023-06-22T21:11:47;87651.50;;;25.24;49.12
21623;BME280;10973;46.706;12.340;2023-06-22T21:14:14;87657.34;;;25.22;49.36
21623;BME280;10973;46.706;12.340;2023-06-22T21:16:47;87647.63;;;25.07;49.74